Terminal Aerodrome Forecast
Issued by NWS

Home | Current Version | Previous Version | Text Only | Print | Product List | Glossary On
Versions: 1 2 3 4 5 6 7 8 9 10 11 12 13 14 15 16 17 18 19 20
270
FTUS44 KBMX 280541
TAFMGM
TAF
KMGM 280541Z 2806/2906 20004KT P6SM OVC080
     FM280700 20004KT P6SM BKN015 BKN120
     FM281900 25007KT P6SM VCSH BKN040=

USA.gov is the U.S. government's official web portal to all federal, state and local government web resources and services.